createdAt,value
2018-06-10T00:00:37.513Z,17.95
2018-06-10T00:03:06.999Z,18.04
2018-06-10T00:05:36.263Z,17.99
2018-06-10T00:08:05.472Z,17.96
2018-06-10T00:10:34.691Z,17.95
2018-06-10T00:13:03.991Z,17.93
2018-06-10T00:15:33.311Z,17.87
2018-06-10T00:18:02.558Z,17.84
2018-06-10T00:20:31.808Z,17.84
2018-06-10T00:23:01.043Z,17.84
2018-06-10T00:25:30.360Z,17.83
2018-06-10T00:27:59.614Z,17.82
2018-06-10T00:30:28.903Z,17.78
2018-06-10T00:32:58.170Z,17.73
2018-06-10T00:35:27.467Z,17.69
2018-06-10T00:37:56.731Z,17.66
2018-06-10T00:40:25.996Z,17.57
2018-06-10T00:42:55.258Z,17.58
2018-06-10T00:45:24.480Z,17.57
2018-06-10T00:47:53.718Z,17.55
2018-06-10T00:50:22.954Z,17.51
2018-06-10T00:52:52.218Z,17.49
2018-06-10T00:55:21.459Z,17.53
2018-06-10T00:57:50.742Z,17.47
2018-06-10T01:00:19.972Z,17.46
2018-06-10T01:02:49.182Z,17.48
2018-06-10T01:05:18.408Z,17.52
2018-06-10T01:07:47.648Z,17.56
2018-06-10T01:10:16.856Z,17.61
2018-06-10T01:12:46.115Z,17.65
2018-06-10T01:15:15.374Z,17.65
2018-06-10T01:17:44.663Z,17.68
2018-06-10T01:20:13.955Z,17.67
2018-06-10T01:22:43.270Z,17.66
2018-06-10T01:25:12.587Z,17.68
2018-06-10T01:27:41.956Z,17.66
2018-06-10T01:30:11.280Z,17.69
2018-06-10T01:32:40.572Z,17.66
2018-06-10T01:35:09.869Z,17.71
2018-06-10T01:37:39.155Z,17.70
2018-06-10T01:40:08.405Z,17.68
2018-06-10T01:42:37.635Z,17.66
2018-06-10T01:45:06.868Z,17.62
2018-06-10T01:47:36.097Z,17.59
2018-06-10T01:50:05.325Z,17.58
2018-06-10T01:52:34.542Z,17.56
2018-06-10T01:55:03.830Z,17.58
2018-06-10T01:57:33.103Z,17.56
2018-06-10T02:00:02.367Z,17.59
2018-06-10T02:02:31.642Z,17.56
2018-06-10T02:05:00.899Z,17.53
2018-06-10T02:07:30.211Z,17.48
2018-06-10T02:09:59.494Z,17.42
2018-06-10T02:12:28.807Z,17.43
2018-06-10T02:14:58.055Z,17.42
2018-06-10T02:17:27.320Z,17.35
2018-06-10T02:19:56.602Z,17.33
2018-06-10T02:22:25.828Z,17.28
2018-06-10T02:24:55.079Z,17.26
2018-06-10T02:27:24.314Z,17.23
2018-06-10T02:29:53.550Z,17.23
2018-06-10T02:32:22.946Z,17.18
2018-06-10T02:34:52.206Z,17.19
2018-06-10T02:37:21.445Z,17.17
2018-06-10T02:39:50.662Z,17.14
2018-06-10T02:42:19.902Z,17.17
2018-06-10T02:44:49.149Z,17.21
2018-06-10T02:47:18.383Z,17.20
2018-06-10T02:49:47.646Z,17.22
2018-06-10T02:52:16.901Z,17.20
2018-06-10T02:54:46.178Z,17.14
2018-06-10T02:57:15.516Z,17.14
2018-06-10T02:59:44.809Z,17.18
2018-06-10T03:02:14.138Z,17.14
2018-06-10T03:04:43.511Z,17.13
2018-06-10T03:07:12.913Z,17.15
2018-06-10T03:09:42.261Z,17.18
2018-06-10T03:12:11.615Z,17.18
2018-06-10T03:14:40.979Z,17.19
2018-06-10T03:17:10.937Z,17.13
2018-06-10T03:19:40.246Z,17.11
2018-06-10T03:22:09.481Z,17.08
2018-06-10T03:24:38.730Z,17.04
2018-06-10T03:27:07.978Z,16.97
2018-06-10T03:29:37.001Z,16.95
2018-06-10T03:32:06.256Z,16.93
2018-06-10T03:34:35.489Z,16.88
2018-06-10T03:37:04.851Z,16.86
2018-06-10T03:39:34.082Z,16.89
2018-06-10T03:42:03.350Z,16.92
2018-06-10T03:44:32.611Z,16.93
2018-06-10T03:47:01.905Z,16.91
2018-06-10T03:49:31.158Z,16.97
2018-06-10T03:52:00.419Z,16.99
2018-06-10T03:54:29.663Z,17.02
2018-06-10T03:56:58.924Z,17.06
2018-06-10T03:59:28.204Z,17.06
2018-06-10T04:01:57.514Z,17.09
2018-06-10T04:04:26.756Z,17.13
2018-06-10T04:06:55.774Z,17.12
2018-06-10T04:09:25.016Z,17.22
2018-06-10T04:11:54.250Z,17.27
2018-06-10T04:14:23.482Z,17.33
2018-06-10T04:16:52.719Z,17.40
2018-06-10T04:19:21.951Z,17.48
2018-06-10T04:21:51.216Z,17.57
2018-06-10T04:24:20.511Z,17.67
2018-06-10T04:26:49.781Z,17.71
2018-06-10T04:29:19.038Z,17.82
2018-06-10T04:31:48.280Z,17.92
2018-06-10T04:34:17.534Z,17.97
2018-06-10T04:36:46.798Z,18.01
2018-06-10T04:39:16.102Z,18.11
2018-06-10T04:41:45.423Z,18.13
2018-06-10T04:44:14.773Z,18.22
2018-06-10T04:46:44.050Z,18.29
2018-06-10T04:49:13.410Z,18.88
2018-06-10T04:51:42.813Z,19.36
2018-06-10T04:54:12.184Z,19.71
2018-06-10T04:56:41.466Z,19.85
2018-06-10T04:59:10.748Z,19.67
2018-06-10T05:01:40.052Z,20.05
2018-06-10T05:04:09.067Z,20.02
2018-06-10T05:06:38.322Z,20.55
2018-06-10T05:09:07.839Z,20.96
2018-06-10T05:11:37.080Z,20.88
2018-06-10T05:14:06.362Z,21.50
2018-06-10T05:16:35.705Z,22.03
2018-06-10T05:19:05.090Z,21.78
2018-06-10T05:21:34.500Z,22.15
2018-06-10T05:24:03.751Z,22.38
2018-06-10T05:26:33.006Z,22.05
2018-06-10T05:29:02.298Z,22.13
2018-06-10T05:31:31.540Z,22.26
2018-06-10T05:34:00.850Z,22.18
2018-06-10T05:36:30.122Z,22.36
2018-06-10T05:38:59.502Z,22.49
2018-06-10T05:41:28.754Z,22.48
2018-06-10T05:43:58.014Z,22.49
2018-06-10T05:46:27.363Z,22.45
2018-06-10T05:48:56.719Z,22.77
2018-06-10T05:51:25.991Z,22.85
2018-06-10T05:53:55.325Z,22.94
2018-06-10T05:56:24.611Z,23.01
2018-06-10T05:58:53.843Z,23.14
2018-06-10T06:01:23.103Z,22.82
2018-06-10T06:03:52.350Z,22.99
2018-06-10T06:06:21.617Z,23.05
2018-06-10T06:08:50.874Z,22.90
2018-06-10T06:11:21.460Z,22.98
2018-06-10T06:13:50.708Z,23.28
2018-06-10T06:16:19.989Z,22.64
2018-06-10T06:18:49.244Z,23.12
2018-06-10T06:21:18.564Z,23.03
2018-06-10T06:23:47.841Z,23.36
2018-06-10T06:26:17.215Z,23.34
2018-06-10T06:28:46.500Z,23.32
2018-06-10T06:31:15.867Z,23.49
2018-06-10T06:33:45.155Z,24.09
2018-06-10T06:36:14.261Z,23.52
2018-06-10T06:38:43.617Z,23.45
2018-06-10T06:41:12.936Z,23.08
2018-06-10T06:43:42.240Z,22.74
2018-06-10T06:46:11.625Z,22.82
2018-06-10T06:48:40.749Z,23.04
2018-06-10T06:51:10.040Z,23.30
2018-06-10T06:53:39.469Z,23.72
2018-06-10T06:56:08.757Z,23.47
2018-06-10T06:58:38.043Z,23.60
2018-06-10T07:01:07.380Z,23.49
2018-06-10T07:03:36.756Z,23.19
2018-06-10T07:06:05.987Z,22.63
2018-06-10T07:08:35.219Z,22.68
2018-06-10T07:11:04.468Z,22.95
2018-06-10T07:13:33.751Z,23.26
2018-06-10T07:16:03.023Z,23.08
2018-06-10T07:18:32.299Z,23.40
2018-06-10T07:21:01.620Z,23.59
2018-06-10T07:23:30.863Z,23.72
2018-06-10T07:26:00.199Z,23.23
2018-06-10T07:28:29.509Z,23.51
2018-06-10T07:30:58.852Z,23.94
2018-06-10T07:33:28.162Z,23.92
2018-06-10T07:35:57.475Z,23.70
2018-06-10T07:38:26.711Z,23.58
2018-06-10T07:40:55.991Z,23.81
2018-06-10T07:43:25.214Z,24.20
2018-06-10T07:45:54.447Z,24.10
2018-06-10T07:48:23.854Z,24.36
2018-06-10T07:50:53.066Z,24.92
2018-06-10T07:53:22.315Z,25.40
2018-06-10T07:55:51.666Z,25.04
2018-06-10T07:58:20.913Z,24.61
2018-06-10T08:00:50.120Z,24.17
2018-06-10T08:03:19.370Z,23.89
2018-06-10T08:05:48.542Z,23.91
2018-06-10T08:08:17.783Z,23.77
2018-06-10T08:10:46.979Z,24.62
2018-06-10T08:13:16.273Z,24.27
2018-06-10T08:15:45.531Z,24.05
2018-06-10T08:18:14.854Z,24.06
2018-06-10T08:20:44.137Z,24.16
2018-06-10T08:23:13.417Z,24.15
2018-06-10T08:25:42.734Z,24.40
2018-06-10T08:28:12.671Z,24.68
2018-06-10T08:30:41.993Z,24.84
2018-06-10T08:33:11.295Z,24.76
2018-06-10T08:35:40.549Z,24.78
2018-06-10T08:38:09.810Z,24.41
2018-06-10T08:40:39.035Z,24.70
2018-06-10T08:43:08.283Z,25.26
2018-06-10T08:45:37.500Z,25.19
2018-06-10T08:48:06.749Z,25.64
2018-06-10T08:50:35.999Z,25.97
2018-06-10T08:53:05.335Z,25.51
2018-06-10T08:55:34.584Z,25.75
2018-06-10T08:58:04.284Z,25.39
2018-06-10T09:00:33.526Z,24.95
2018-06-10T09:03:02.756Z,25.67
2018-06-10T09:05:32.059Z,25.64
2018-06-10T09:08:01.278Z,25.76
2018-06-10T09:10:30.529Z,26.08
2018-06-10T09:12:59.887Z,26.10
2018-06-10T09:15:28.934Z,26.42
2018-06-10T09:17:58.224Z,26.28
2018-06-10T09:20:27.500Z,26.43
2018-06-10T09:22:57.731Z,26.23
2018-06-10T09:25:26.786Z,25.91
2018-06-10T09:27:56.085Z,25.98
2018-06-10T09:30:25.400Z,26.15
2018-06-10T09:32:54.634Z,25.43
2018-06-10T09:35:23.908Z,25.19
2018-06-10T09:37:53.127Z,25.40
2018-06-10T09:40:22.387Z,25.37
2018-06-10T09:42:51.644Z,25.89
2018-06-10T09:45:20.899Z,26.21
2018-06-10T09:47:50.133Z,26.84
2018-06-10T09:50:19.370Z,26.41
2018-06-10T09:52:48.614Z,26.89
2018-06-10T09:55:17.899Z,27.94
2018-06-10T09:57:47.101Z,28.25
2018-06-10T10:00:21.639Z,27.89
2018-06-10T10:02:57.423Z,28.11
2018-06-10T10:05:26.750Z,27.67
2018-06-10T10:07:56.049Z,27.40
2018-06-10T10:10:25.487Z,26.97
2018-06-10T10:12:54.704Z,27.59
2018-06-10T10:15:23.962Z,28.53
2018-06-10T10:17:53.223Z,28.76
2018-06-10T10:20:22.463Z,28.82
2018-06-10T10:22:51.686Z,28.30
2018-06-10T10:25:20.914Z,28.24
2018-06-10T10:27:50.323Z,27.68
2018-06-10T10:30:19.574Z,26.91
2018-06-10T10:32:48.766Z,27.47
2018-06-10T10:35:18.042Z,27.30
2018-06-10T10:37:47.279Z,26.84
2018-06-10T10:40:16.522Z,26.12
2018-06-10T10:42:45.760Z,25.91
2018-06-10T10:45:15.055Z,26.23
2018-06-10T10:47:44.375Z,27.02
2018-06-10T10:50:13.646Z,27.09
2018-06-10T10:52:42.899Z,26.39
2018-06-10T10:55:12.155Z,26.35
2018-06-10T10:57:41.502Z,26.98
2018-06-10T11:00:10.781Z,27.26
2018-06-10T11:02:40.011Z,27.68
2018-06-10T11:05:09.204Z,27.25
2018-06-10T11:07:38.465Z,27.04
2018-06-10T11:10:07.663Z,27.42
2018-06-10T11:12:36.935Z,27.75
2018-06-10T11:15:06.152Z,27.72
2018-06-10T11:17:35.350Z,26.90
2018-06-10T11:20:04.554Z,27.14
2018-06-10T11:22:33.775Z,28.35
2018-06-10T11:25:03.014Z,28.17
2018-06-10T11:27:32.253Z,28.54
2018-06-10T11:30:01.531Z,28.73
2018-06-10T11:32:30.754Z,29.21
2018-06-10T11:35:00.008Z,29.06
2018-06-10T11:37:29.359Z,29.04
2018-06-10T11:39:58.619Z,28.37
2018-06-10T11:42:27.961Z,27.21
2018-06-10T11:44:57.270Z,26.95
2018-06-10T11:47:26.502Z,26.67
2018-06-10T11:49:55.771Z,27.72
2018-06-10T11:52:25.000Z,27.90
2018-06-10T11:54:54.436Z,27.94
2018-06-10T11:57:23.679Z,27.57
2018-06-10T11:59:53.044Z,27.99
2018-06-10T12:02:22.869Z,27.24
2018-06-10T12:04:52.434Z,27.24
2018-06-10T12:07:21.749Z,27.07
2018-06-10T12:09:51.068Z,26.98
2018-06-10T12:12:20.422Z,27.21
2018-06-10T12:14:50.033Z,27.58
2018-06-10T12:17:19.385Z,27.63
2018-06-10T12:19:48.626Z,27.37
2018-06-10T12:22:17.920Z,27.50
2018-06-10T12:24:47.305Z,28.29
2018-06-10T12:27:16.668Z,28.26
2018-06-10T12:29:46.215Z,29.35
2018-06-10T12:32:15.358Z,29.35
2018-06-10T12:34:44.762Z,29.49
2018-06-10T12:37:14.292Z,29.08
2018-06-10T12:39:43.732Z,29.55
2018-06-10T12:42:13.247Z,29.28
2018-06-10T12:44:42.740Z,29.31
2018-06-10T12:47:12.304Z,28.54
2018-06-10T12:49:42.664Z,28.87
2018-06-10T12:52:12.117Z,28.85
2018-06-10T12:54:41.430Z,28.77
2018-06-10T12:57:10.747Z,28.70
2018-06-10T12:59:39.982Z,29.17
2018-06-10T13:02:09.235Z,29.70
2018-06-10T13:04:38.507Z,29.51
2018-06-10T13:07:07.800Z,29.36
2018-06-10T13:09:37.104Z,29.69
2018-06-10T13:12:06.394Z,30.05
2018-06-10T13:14:35.717Z,30.16
2018-06-10T13:17:04.693Z,28.86
2018-06-10T13:19:34.060Z,28.65
2018-06-10T13:22:03.324Z,29.06
2018-06-10T13:24:32.423Z,29.64
2018-06-10T13:27:01.752Z,29.18
2018-06-10T13:29:31.468Z,29.16
2018-06-10T13:32:00.610Z,29.32
2018-06-10T13:34:29.911Z,29.15
2018-06-10T13:36:59.154Z,29.93
2018-06-10T13:39:28.380Z,29.16
2018-06-10T13:41:57.767Z,27.69
2018-06-10T13:44:27.014Z,27.62
2018-06-10T13:46:56.288Z,27.69
2018-06-10T13:49:25.534Z,27.85
2018-06-10T13:51:54.833Z,27.45
2018-06-10T13:54:24.147Z,27.19
2018-06-10T13:56:53.437Z,27.07
2018-06-10T13:59:22.736Z,27.06
2018-06-10T14:01:51.973Z,27.02
2018-06-10T14:04:21.215Z,26.82
2018-06-10T14:06:50.645Z,26.91
2018-06-10T14:09:19.891Z,26.68
2018-06-10T14:11:49.182Z,26.66
2018-06-10T14:14:18.230Z,26.64
2018-06-10T14:16:47.467Z,25.96
2018-06-10T14:19:16.795Z,25.64
2018-06-10T14:21:48.332Z,25.65
2018-06-10T14:24:17.610Z,25.28
2018-06-10T14:26:46.891Z,25.17
2018-06-10T14:29:16.132Z,25.11
2018-06-10T14:31:45.213Z,25.20
2018-06-10T14:34:14.501Z,25.38
2018-06-10T14:36:43.797Z,25.37
2018-06-10T14:39:13.134Z,25.38
2018-06-10T14:41:42.671Z,25.25
2018-06-10T14:44:12.020Z,25.50
2018-06-10T14:46:41.467Z,25.73
2018-06-10T14:49:11.010Z,25.86
2018-06-10T14:51:40.320Z,25.83
2018-06-10T14:54:10.508Z,25.91
2018-06-10T14:56:39.743Z,25.85
2018-06-10T14:59:09.003Z,26.26
2018-06-10T15:01:38.221Z,26.99
2018-06-10T15:04:07.423Z,27.60
2018-06-10T15:06:36.697Z,27.92
2018-06-10T15:09:08.677Z,27.43
2018-06-10T15:11:37.935Z,27.25
2018-06-10T15:14:06.918Z,27.44
2018-06-10T15:16:36.206Z,27.15
2018-06-10T15:19:05.465Z,27.10
2018-06-10T15:21:34.497Z,26.80
2018-06-10T15:24:03.780Z,26.66
2018-06-10T15:26:33.035Z,26.59
2018-06-10T15:29:02.300Z,26.42
2018-06-10T15:31:31.555Z,26.46
2018-06-10T15:34:00.855Z,26.95
2018-06-10T15:36:30.127Z,27.32
2018-06-10T15:38:59.407Z,27.68
2018-06-10T15:41:28.728Z,28.00
2018-06-10T15:43:58.018Z,28.13
2018-06-10T15:46:27.349Z,28.24
2018-06-10T15:48:56.617Z,28.40
2018-06-10T15:51:25.654Z,28.05
2018-06-10T15:53:54.917Z,27.92
2018-06-10T15:56:24.239Z,27.27
2018-06-10T15:58:53.471Z,27.02
2018-06-10T16:01:22.498Z,27.35
2018-06-10T16:03:51.722Z,27.93
2018-06-10T16:06:20.958Z,27.89
2018-06-10T16:08:50.161Z,28.15
2018-06-10T16:11:19.427Z,28.50
2018-06-10T16:13:48.663Z,28.77
2018-06-10T16:16:17.877Z,28.85
2018-06-10T16:18:47.098Z,28.54
2018-06-10T16:21:16.383Z,28.29
2018-06-10T16:23:45.643Z,28.28
2018-06-10T16:26:14.902Z,28.23
2018-06-10T16:28:45.232Z,28.17
2018-06-10T16:31:14.490Z,28.14
2018-06-10T16:33:43.778Z,28.30
2018-06-10T16:36:13.107Z,27.98
2018-06-10T16:38:42.508Z,27.80
2018-06-10T16:41:11.840Z,27.93
2018-06-10T16:43:41.202Z,27.91
2018-06-10T16:46:10.210Z,28.00
2018-06-10T16:48:39.450Z,28.66
2018-06-10T16:51:08.717Z,28.85
2018-06-10T16:53:37.952Z,29.10
2018-06-10T16:56:07.171Z,30.22
2018-06-10T16:58:36.396Z,31.07
2018-06-10T17:01:05.673Z,31.61
2018-06-10T17:03:34.947Z,31.89
2018-06-10T17:06:04.238Z,32.11
2018-06-10T17:08:33.471Z,32.02
2018-06-10T17:11:02.696Z,32.71
2018-06-10T17:13:31.977Z,32.02
2018-06-10T17:16:01.191Z,31.75
2018-06-10T17:18:30.382Z,31.59
2018-06-10T17:20:59.662Z,29.99
2018-06-10T17:23:29.076Z,29.26
2018-06-10T17:25:59.403Z,28.77
2018-06-10T17:28:28.665Z,28.00
2018-06-10T17:30:57.886Z,27.63
2018-06-10T17:33:27.178Z,27.57
2018-06-10T17:35:56.631Z,27.88
2018-06-10T17:38:25.975Z,27.30
2018-06-10T17:40:55.322Z,26.52
2018-06-10T17:43:24.628Z,26.37
2018-06-10T17:45:53.972Z,26.13
2018-06-10T17:48:23.384Z,25.82
2018-06-10T17:53:14.272Z,25.64
2018-06-10T17:55:43.605Z,25.49
2018-06-10T17:58:13.032Z,25.36
2018-06-10T18:00:42.466Z,25.34
2018-06-10T18:03:11.876Z,25.27
2018-06-10T18:05:41.309Z,25.39
2018-06-10T18:08:10.751Z,25.22
2018-06-10T18:10:40.177Z,25.23
2018-06-10T18:13:09.668Z,25.03
2018-06-10T18:15:39.223Z,24.99
2018-06-10T18:18:08.791Z,24.80
2018-06-10T18:20:38.338Z,24.68
2018-06-10T18:23:07.683Z,24.55
2018-06-10T18:25:37.211Z,24.42
2018-06-10T18:28:06.682Z,24.37
2018-06-10T18:30:36.210Z,24.27
2018-06-10T18:33:05.701Z,24.20
2018-06-10T18:35:35.198Z,24.13
2018-06-10T18:38:04.813Z,24.04
2018-06-10T18:40:34.413Z,23.93
2018-06-10T18:43:03.895Z,23.98
2018-06-10T18:45:33.424Z,23.93
2018-06-10T18:48:02.947Z,23.84
2018-06-10T18:50:32.495Z,23.74
2018-06-10T18:53:02.021Z,23.58
2018-06-10T18:55:31.455Z,23.50
2018-06-10T18:58:00.918Z,23.50
2018-06-10T19:00:30.433Z,23.48
2018-06-10T19:02:59.996Z,23.38
2018-06-10T19:05:35.810Z,23.27
2018-06-10T19:08:05.385Z,23.14
2018-06-10T19:10:34.878Z,23.08
2018-06-10T19:13:04.586Z,23.05
2018-06-10T19:15:34.096Z,22.93
2018-06-10T19:18:03.531Z,22.85
2018-06-10T19:20:32.985Z,22.84
2018-06-10T19:23:02.446Z,22.71
2018-06-10T19:25:32.031Z,22.70
2018-06-10T19:28:01.425Z,22.72
2018-06-10T19:30:30.935Z,22.74
2018-06-10T19:33:00.248Z,22.64
2018-06-10T19:35:29.645Z,22.57
2018-06-10T19:37:58.885Z,22.52
2018-06-10T19:40:28.202Z,22.54
2018-06-10T19:42:57.499Z,22.47
2018-06-10T19:45:26.796Z,22.30
2018-06-10T19:47:56.139Z,22.20
2018-06-10T19:50:25.547Z,22.13
2018-06-10T19:52:54.944Z,22.07
2018-06-10T19:55:24.306Z,22.01
2018-06-10T19:57:53.442Z,22.04
2018-06-10T20:00:22.684Z,22.04
2018-06-10T20:02:52.044Z,22.00
2018-06-10T20:05:21.275Z,21.93
2018-06-10T20:07:50.571Z,21.87
2018-06-10T20:10:19.715Z,21.81
2018-06-10T20:12:49.057Z,21.72
2018-06-10T20:15:18.370Z,21.71
2018-06-10T20:17:47.603Z,21.59
2018-06-10T20:20:16.812Z,21.51
2018-06-10T20:22:46.079Z,21.43
2018-06-10T20:25:15.388Z,21.39
2018-06-10T20:27:44.689Z,21.43
2018-06-10T20:30:14.003Z,21.29
2018-06-10T20:32:43.491Z,21.25
2018-06-10T20:35:12.828Z,21.21
2018-06-10T20:37:42.130Z,21.16
2018-06-10T20:40:11.742Z,21.08
2018-06-10T20:42:40.813Z,21.02
2018-06-10T20:45:10.107Z,20.94
2018-06-10T20:47:41.995Z,20.92
2018-06-10T20:50:11.674Z,20.89
2018-06-10T20:52:40.992Z,20.86
2018-06-10T20:55:10.339Z,20.88
2018-06-10T20:57:39.619Z,20.86
2018-06-10T21:00:08.616Z,20.78
2018-06-10T21:02:38.090Z,20.73
2018-06-10T21:05:07.373Z,20.71
2018-06-10T21:07:36.583Z,20.78
2018-06-10T21:10:05.827Z,20.97
2018-06-10T21:12:35.439Z,21.06
2018-06-10T21:15:04.948Z,21.06
2018-06-10T21:17:34.150Z,20.99
2018-06-10T21:20:03.415Z,20.94
2018-06-10T21:22:32.615Z,20.99
2018-06-10T21:25:02.065Z,21.00
2018-06-10T21:27:31.327Z,20.95
2018-06-10T21:30:00.587Z,20.87
2018-06-10T21:32:29.857Z,20.77
2018-06-10T21:34:59.523Z,20.69
2018-06-10T21:37:28.751Z,20.72
2018-06-10T21:39:58.172Z,20.68
2018-06-10T21:42:27.492Z,20.60
2018-06-10T21:44:56.771Z,20.58
2018-06-10T21:47:26.053Z,20.55
2018-06-10T21:49:55.222Z,20.54
2018-06-10T21:52:24.464Z,20.59
2018-06-10T21:54:55.216Z,20.54
2018-06-10T21:57:24.423Z,20.51
2018-06-10T21:59:53.671Z,20.48
2018-06-10T22:02:22.883Z,20.46
2018-06-10T22:04:51.877Z,20.41
2018-06-10T22:07:21.080Z,20.40
2018-06-10T22:09:50.393Z,20.44
2018-06-10T22:12:19.667Z,20.44
2018-06-10T22:14:48.916Z,20.42
2018-06-10T22:17:19.164Z,20.40
2018-06-10T22:19:48.414Z,20.41
2018-06-10T22:22:17.613Z,20.29
2018-06-10T22:24:46.833Z,20.24
2018-06-10T22:27:16.165Z,20.15
2018-06-10T22:29:45.544Z,20.11
2018-06-10T22:32:15.442Z,20.06
2018-06-10T22:34:44.805Z,20.03
2018-06-10T22:37:14.100Z,20.09
2018-06-10T22:39:43.457Z,20.01
2018-06-10T22:42:12.747Z,19.97
2018-06-10T22:44:43.198Z,19.94
2018-06-10T22:47:13.512Z,19.82
2018-06-10T22:49:42.803Z,19.79
2018-06-10T22:52:12.214Z,19.87
2018-06-10T22:54:43.813Z,19.84
2018-06-10T22:57:13.170Z,19.91
2018-06-10T22:59:42.507Z,19.76
2018-06-10T23:02:12.359Z,19.79
2018-06-10T23:04:41.671Z,19.68
2018-06-10T23:07:11.008Z,19.64
2018-06-10T23:09:40.266Z,19.57
2018-06-10T23:12:09.592Z,19.57
2018-06-10T23:14:38.903Z,19.53
2018-06-10T23:17:08.367Z,19.48
2018-06-10T23:19:37.578Z,19.39
2018-06-10T23:22:06.815Z,19.33
2018-06-10T23:24:37.157Z,19.26
2018-06-10T23:27:06.407Z,19.13
2018-06-10T23:29:36.500Z,19.04
2018-06-10T23:32:05.710Z,18.98
2018-06-10T23:34:35.665Z,18.93
2018-06-10T23:37:04.667Z,18.93
2018-06-10T23:39:33.895Z,18.80
2018-06-10T23:42:03.148Z,18.81
2018-06-10T23:44:32.370Z,18.76
2018-06-10T23:47:01.748Z,18.80
2018-06-10T23:49:30.985Z,18.64
2018-06-10T23:52:00.239Z,18.71
2018-06-10T23:54:29.587Z,18.68
2018-06-10T23:56:59.455Z,18.63
2018-06-10T23:59:28.772Z,18.53
